This is the latest recevied weather packets stored in our database for station/object 9M4RBN-3. If no packets are shown the sender has not sent any weather packets the latest 10 day(s).
| Time | Temp. | Humidity | Pressure | Rain* | Wind** | Luminosity | Snow |
|---|---|---|---|---|---|---|---|
| 1778027802 | 26.11° C | 62% | 1014.6 hPa | - | - | - | - |
| 1778026905 | 25.56° C | 57% | 1014.4 hPa | - | - | - | - |
| 1778026002 | 25° C | 53% | 1014.2 hPa | - | - | - | - |
| 1778025102 | 25.56° C | 67% | 1014.1 hPa | - | - | - | - |
| 1778024202 | 25° C | 63% | 1013.8 hPa | - | - | - | - |
| 1778023304 | 24.44° C | 45% | 1013.6 hPa | - | - | - | - |
| 1778022402 | 24.44° C | 45% | 1013.6 hPa | - | - | - | - |
| 1778021502 | 24.44° C | 44% | 1013.5 hPa | - | - | - | - |
| 1778020602 | 24.44° C | 44% | 1013.5 hPa | - | - | - | - |
| 1778019702 | 25° C | 44% | 1013.5 hPa | - | - | - | - |
| 1778018802 | 25° C | 44% | 1013.3 hPa | - | - | - | - |
| 1778017902 | 25° C | 44% | 1013.2 hPa | - | - | - | - |
| 1778017002 | 25.56° C | 43% | 1013.1 hPa | - | - | - | - |
| 1778016102 | 25.56° C | 44% | 1013.1 hPa | - | - | - | - |
| 1778015201 | 26.11° C | 44% | 1012.8 hPa | - | - | - | - |
| 1778014301 | 26.67° C | 44% | 1012.9 hPa | - | - | - | - |
| 1778013401 | 27.22° C | 48% | 1013.3 hPa | - | - | - | - |
| 1778012504 | 27.78° C | 57% | 1013.2 hPa | - | - | - | - |
| 1778011601 | 28.33° C | 67% | 1013.4 hPa | - | - | - | - |
| 1778010701 | 28.33° C | 67% | 1013.3 hPa | - | - | - | - |
| 1778009801 | 28.33° C | 67% | 1013.4 hPa | - | - | - | - |
| 1778008904 | 28.33° C | 67% | 1013.6 hPa | - | - | - | - |
| 1778008001 | 28.33° C | 68% | 1013.6 hPa | - | - | - | - |
| 1778007101 | 28.33° C | 68% | 1013.7 hPa | - | - | - | - |
| 1778006201 | 27.78° C | 69% | 1013.8 hPa | - | - | - | - |
* Rain since midnight (hover to see other rain measurements)
** Current wind speed in m/s (hover to see current wind gust speed)